Time;durP1;ratioP1;P1;durP2;ratioP2;P2;SDS_P1;SDS_P2;PMS_P1;PMS_P2;Temp;Humidity;BMP_temperature;BMP_pressure;BME280_temperature;BME280_humidity;BME280_pressure;Samples;Min_cycle;Max_cycle;Signal;HPM_P1;HPM_P2
2022/09/22 00:01:04;;;;;;;15.73;14.10;;;;;;;7.15;100.00;102358.38;5042218;28;20036;-87
2022/09/22 00:03:40;;;;;;;15.20;13.60;;;;;;;7.13;100.00;102360.41;5043104;28;20032;-86
2022/09/22 00:06:39;;;;;;;13.30;11.93;;;;;;;7.15;100.00;102353.00;5042191;28;20095;-84
2022/09/22 00:09:08;;;;;;;13.90;12.50;;;;;;;7.17;100.00;102355.56;5037133;28;20427;-85
2022/09/22 00:11:39;;;;;;;12.80;11.60;;;;;;;7.21;100.00;102347.00;5042275;28;20039;-84
2022/09/22 00:14:26;;;;;;;11.47;10.47;;;;;;;7.20;100.00;102353.38;5057753;28;20534;-84
2022/09/22 00:16:57;;;;;;;13.77;12.37;;;;;;;7.22;100.00;102351.41;5042530;28;20082;-85
2022/09/22 00:19:31;;;;;;;13.43;12.20;;;;;;;7.28;100.00;102351.81;5042372;28;20485;-84
2022/09/22 00:21:57;;;;;;;12.98;11.65;;;;;;;7.12;100.00;102349.78;5042418;28;20037;-85
2022/09/22 00:24:24;;;;;;;12.90;11.37;;;;;;;7.07;100.00;102350.22;5023926;28;20543;-84
2022/09/22 00:26:55;;;;;;;12.50;11.20;;;;;;;7.00;100.00;102346.44;5042298;28;20838;-84
2022/09/22 00:29:22;;;;;;;18.37;11.13;;;;;;;7.01;100.00;102348.97;5042415;28;20041;-84
2022/09/22 00:31:47;;;;;;;11.50;10.50;;;;;;;7.01;100.00;102348.97;5040815;28;20045;-85
2022/09/22 00:34:16;;;;;;;12.67;11.47;;;;;;;6.91;100.00;102353.59;5041393;28;20040;-84
2022/09/22 00:36:41;;;;;;;15.53;13.77;;;;;;;6.85;100.00;102352.31;5041382;28;20036;-84
2022/09/22 00:39:07;;;;;;;15.07;13.57;;;;;;;6.87;100.00;102353.03;5027884;28;20399;-85
2022/09/22 00:41:36;;;;;;;14.30;13.00;;;;;;;6.71;100.00;102333.97;5041384;28;20063;-84
2022/09/22 00:44:20;;;;;;;18.30;16.50;;;;;;;6.84;100.00;102342.56;5041720;28;20036;-84
2022/09/22 00:47:21;;;;;;;16.30;14.60;;;;;;;6.78;100.00;102345.84;5042212;28;20396;-85
2022/09/22 00:50:02;;;;;;;14.50;13.10;;;;;;;6.69;100.00;102341.34;5030985;28;21919;-84
2022/09/22 00:52:46;;;;;;;14.30;12.97;;;;;;;6.75;100.00;102338.06;5041506;28;20048;-84
2022/09/22 00:55:23;;;;;;;13.27;12.03;;;;;;;6.65;100.00;102335.44;5040907;28;20041;-85
2022/09/22 00:57:50;;;;;;;13.53;12.13;;;;;;;6.62;100.00;102337.56;5041495;28;20341;-84
2022/09/22 01:00:16;;;;;;;13.97;12.67;;;;;;;6.56;100.00;102336.31;5040621;28;20520;-87
2022/09/22 01:02:49;;;;;;;13.60;12.27;;;;;;;6.57;100.00;102321.88;5040088;28;20132;-84
2022/09/22 01:05:15;;;;;;;18.57;15.57;;;;;;;6.67;100.00;102324.50;5040567;28;20069;-85
2022/09/22 01:07:41;;;;;;;17.67;15.40;;;;;;;6.68;100.00;102318.13;5073923;28;20036;-85
2022/09/22 01:10:08;;;;;;;16.63;14.80;;;;;;;6.66;100.00;102314.72;5039809;28;20568;-84
2022/09/22 01:12:34;;;;;;;17.47;15.73;;;;;;;6.69;100.00;102317.97;5041412;28;20036;-85
2022/09/22 01:15:10;;;;;;;15.03;13.63;;;;;;;6.55;100.00;102319.28;5040565;28;20033;-86
2022/09/22 01:18:12;;;;;;;14.53;13.13;;;;;;;6.64;100.00;102311.34;5041795;28;20441;-86
2022/09/22 01:20:50;;;;;;;15.23;13.73;;;;;;;6.56;100.00;102315.59;5041608;28;20087;-85
2022/09/22 01:23:46;;;;;;;14.90;13.40;;;;;;;6.68;100.00;102302.81;5041224;28;20035;-85
2022/09/22 01:26:17;;;;;;;16.47;14.77;;;;;;;6.60;100.00;102310.78;5039124;28;20064;-85
2022/09/22 01:28:45;;;;;;;16.63;14.93;;;;;;;6.48;100.00;102299.34;5027005;28;20068;-85
2022/09/22 01:31:22;;;;;;;17.20;15.40;;;;;;;6.56;100.00;102304.00;5040307;28;20037;-85
2022/09/22 01:33:55;;;;;;;17.63;15.83;;;;;;;6.51;100.00;102303.59;5041130;28;20029;-85
2022/09/22 01:36:27;;;;;;;18.00;16.10;;;;;;;6.44;100.00;102303.34;5041295;28;20119;-85
2022/09/22 01:39:13;;;;;;;16.63;14.93;;;;;;;6.51;100.00;102300.91;5041487;28;20087;-85
2022/09/22 01:41:50;;;;;;;15.77;14.07;;;;;;;6.54;100.00;102306.84;5041025;28;21374;-85
2022/09/22 01:44:26;;;;;;;15.00;12.50;;;;;;;6.47;100.00;102303.03;5040959;28;21401;-86
2022/09/22 01:46:56;;;;;;;15.67;14.07;;;;;;;6.44;100.00;102299.81;5040941;28;20087;-85
2022/09/22 01:49:24;;;;;;;18.93;15.27;;;;;;;6.33;100.00;102290.91;5040858;28;20033;-85
2022/09/22 01:52:19;;;;;;;14.30;12.80;;;;;;;6.52;100.00;102291.84;5039750;28;20416;-85
2022/09/22 01:54:56;;;;;;;13.93;12.43;;;;;;;6.48;100.00;102287.75;5041266;28;20433;-87
2022/09/22 01:57:26;;;;;;;15.33;13.73;;;;;;;6.35;100.00;102288.06;5040765;28;20052;-85
2022/09/22 01:59:57;;;;;;;13.83;12.37;;;;;;;6.40;100.00;102277.72;5041243;28;20041;-85
2022/09/22 02:02:36;;;;;;;12.50;11.40;;;;;;;6.40;100.00;102275.84;5072270;28;20110;-85
2022/09/22 02:05:05;;;;;;;14.43;12.97;;;;;;;6.25;100.00;102280.03;5040441;28;20677;-85
2022/09/22 02:07:52;;;;;;;12.83;11.57;;;;;;;6.34;100.00;102267.56;5041673;28;20394;-85
2022/09/22 02:10:25;;;;;;;12.63;11.33;;;;;;;6.33;100.00;102268.53;5040276;28;20040;-85
2022/09/22 02:12:51;;;;;;;14.17;12.63;;;;;;;6.23;100.00;102277.50;5074089;28;20507;-85
2022/09/22 02:18:07;;;;;;;14.33;12.83;;;;;;;6.33;100.00;102268.53;5045027;28;20052;-85
2022/09/22 02:20:33;;;;;;;11.17;10.10;;;;;;;6.24;100.00;102273.81;5043949;28;20373;-85
2022/09/22 02:22:58;;;;;;;10.40;9.40;;;;;;;6.29;100.00;102259.91;5044847;28;20035;-85
2022/09/22 02:25:24;;;;;;;12.17;11.07;;;;;;;6.19;100.00;102257.25;5044771;28;20037;-85
2022/09/22 02:27:53;;;;;;;13.40;12.00;;;;;;;6.10;100.00;102266.22;5044295;28;20067;-85
2022/09/22 02:30:19;;;;;;;13.30;12.00;;;;;;;6.11;100.00;102257.16;5043721;28;20025;-85
2022/09/22 02:32:48;;;;;;;13.50;12.10;;;;;;;6.08;100.00;102257.47;5029445;28;20483;-85
2022/09/22 02:35:14;;;;;;;13.80;12.50;;;;;;;6.07;100.00;102255.75;5044252;28;20442;-85
2022/09/22 02:37:48;;;;;;;14.10;12.77;;;;;;;6.05;100.00;102252.34;5044882;28;20076;-86
2022/09/22 02:40:31;;;;;;;14.35;12.93;;;;;;;6.05;100.00;102257.72;5043324;28;22103;-85
2022/09/22 02:43:17;;;;;;;13.67;12.37;;;;;;;6.01;100.00;102256.34;5043674;28;20707;-85
2022/09/22 02:46:01;;;;;;;16.07;14.03;;;;;;;6.08;100.00;102252.91;5044743;28;20082;-85
2022/09/22 02:48:39;;;;;;;15.97;14.37;;;;;;;6.12;100.00;102250.78;5044652;28;20043;-85
2022/09/22 02:51:05;;;;;;;14.13;12.73;;;;;;;5.96;100.00;102246.00;5041818;28;20413;-85
2022/09/22 02:53:33;;;;;;;15.00;13.40;;;;;;;5.95;100.00;102254.22;5043782;28;20036;-85
2022/09/22 02:55:59;;;;;;;18.07;14.60;;;;;;;5.96;100.00;102247.84;5043647;28;20083;-85
2022/09/22 02:58:25;;;;;;;15.00;13.50;;;;;;;5.96;100.00;102245.16;5059247;28;20041;-85
2022/09/22 03:00:50;;;;;;;14.87;13.37;;;;;;;5.92;100.00;102241.91;5043307;28;20052;-85
2022/09/22 03:03:15;;;;;;;14.60;13.00;;;;;;;5.89;100.00;102242.19;5041899;28;20044;-85
2022/09/22 03:05:41;;;;;;;13.67;12.40;;;;;;;5.89;100.00;102243.03;5044327;28;20044;-85
2022/09/22 03:08:06;;;;;;;14.30;13.00;;;;;;;5.84;100.00;102233.72;5042972;28;20556;-85
2022/09/22 03:10:32;;;;;;;12.97;11.77;;;;;;;5.85;100.00;102235.41;5041967;28;20047;-85
2022/09/22 03:12:57;;;;;;;14.10;12.70;;;;;;;5.85;100.00;102236.25;5043892;28;20041;-88
2022/09/22 03:15:23;;;;;;;15.40;13.90;;;;;;;5.88;100.00;102235.94;5042993;28;20038;-87
2022/09/22 03:17:49;;;;;;;14.80;13.33;;;;;;;5.87;100.00;102236.09;5043858;28;20036;-85
2022/09/22 03:20:14;;;;;;;15.57;14.07;;;;;;;5.80;100.00;102233.16;5044289;28;20505;-85
2022/09/22 03:22:40;;;;;;;16.40;14.80;;;;;;;5.80;100.00;102240.38;5042643;28;20108;-85
2022/09/22 03:25:07;;;;;;;16.77;15.13;;;;;;;5.80;100.00;102235.84;5042941;28;20044;-87
2022/09/22 03:27:32;;;;;;;15.17;13.77;;;;;;;5.77;100.00;102225.38;5042482;28;20041;-85
2022/09/22 03:29:57;;;;;;;15.93;14.33;;;;;;;5.81;100.00;102226.78;5043544;28;20037;-85
2022/09/22 03:32:23;;;;;;;16.40;14.80;;;;;;;5.82;100.00;102225.78;5042612;28;20045;-85
2022/09/22 03:34:48;;;;;;;16.57;14.97;;;;;;;5.74;100.00;102228.38;5043185;28;20041;-86
2022/09/22 03:37:15;;;;;;;18.50;16.60;;;;;;;5.84;100.00;102225.66;5042299;28;20041;-85
2022/09/22 03:39:40;;;;;;;16.33;14.70;;;;;;;5.73;100.00;102215.91;5043620;28;20110;-86
2022/09/22 03:42:06;;;;;;;17.77;16.10;;;;;;;5.73;100.00;102227.50;5041621;28;20036;-85
2022/09/22 03:44:32;;;;;;;17.93;16.13;;;;;;;5.69;100.00;102220.72;5043022;28;20435;-85
2022/09/22 03:46:57;;;;;;;16.50;14.90;;;;;;;5.66;100.00;102220.19;5042269;28;20064;-85
2022/09/22 03:49:23;;;;;;;17.83;16.03;;;;;;;5.69;100.00;102219.88;5042819;28;20074;-85
2022/09/22 03:51:49;;;;;;;17.60;15.90;;;;;;;5.66;100.00;102221.03;5057602;28;20060;-85
2022/09/22 03:54:14;;;;;;;17.97;16.20;;;;;;;5.71;100.00;102223.25;5043292;28;20485;-85
2022/09/22 03:56:39;;;;;;;20.33;18.33;;;;;;;5.64;100.00;102214.09;5042323;28;20033;-85
2022/09/22 03:59:05;;;;;;;20.77;18.77;;;;;;;5.72;100.00;102219.59;5042556;28;20047;-86
2022/09/22 04:01:30;;;;;;;21.37;19.27;;;;;;;5.75;100.00;102217.47;5044429;28;20091;-86
2022/09/22 04:03:56;;;;;;;21.40;19.40;;;;;;;5.71;100.00;102220.56;5044940;28;20397;-86
2022/09/22 04:06:21;;;;;;;21.30;19.23;;;;;;;5.64;100.00;102212.22;5042549;28;20033;-85
2022/09/22 04:08:46;;;;;;;20.80;18.80;;;;;;;5.67;100.00;102213.78;5056058;28;20041;-86
2022/09/22 04:11:12;;;;;;;20.30;18.30;;;;;;;5.65;100.00;102215.78;5042269;28;20037;-85
2022/09/22 04:13:37;;;;;;;22.50;20.30;;;;;;;5.67;100.00;102214.66;5043205;28;20064;-85
2022/09/22 04:16:04;;;;;;;23.20;20.93;;;;;;;5.70;100.00;102218.91;5055806;28;20048;-85
2022/09/22 04:18:30;;;;;;;23.83;21.53;;;;;;;5.68;100.00;102208.25;5041991;28;20103;-87
2022/09/22 04:20:57;;;;;;;24.27;22.07;;;;;;;5.68;100.00;102205.56;5043071;28;20622;-85
2022/09/22 04:23:23;;;;;;;25.10;22.60;;;;;;;5.60;100.00;102199.25;5073158;28;20051;-85
2022/09/22 04:25:49;;;;;;;24.97;22.57;;;;;;;5.69;100.00;102203.75;5042241;28;20037;-85
2022/09/22 04:28:14;;;;;;;25.00;22.53;;;;;;;5.69;100.00;102201.91;5010291;28;20179;-85
2022/09/22 04:30:39;;;;;;;24.93;22.53;;;;;;;5.67;100.00;102205.72;5042031;28;20565;-85
2022/09/22 04:33:05;;;;;;;23.67;21.37;;;;;;;5.63;100.00;102191.75;5073390;28;21520;-86
2022/09/22 04:35:31;;;;;;;24.40;21.90;;;;;;;5.69;100.00;102198.38;5040904;28;20075;-87
2022/09/22 04:37:56;;;;;;;26.10;23.57;;;;;;;5.61;100.00;102200.94;5040768;28;20048;-87
2022/09/22 04:40:22;;;;;;;26.77;24.07;;;;;;;5.66;100.00;102199.50;5041772;28;20125;-85
2022/09/22 04:42:48;;;;;;;26.33;23.83;;;;;;;5.64;100.00;102203.34;5042093;28;20064;-85
2022/09/22 04:45:15;;;;;;;24.97;22.47;;;;;;;5.64;100.00;102195.25;5040323;28;20052;-85
2022/09/22 04:47:43;;;;;;;26.23;23.73;;;;;;;5.65;100.00;102196.97;5073656;28;20078;-85
2022/09/22 04:50:09;;;;;;;27.93;25.23;;;;;;;5.69;100.00;102198.38;5042092;28;20135;-85
2022/09/22 04:53:08;;;;;;;26.07;23.57;;;;;;;5.77;100.00;102195.78;5041502;28;20127;-85
2022/09/22 04:55:34;;;;;;;26.83;24.23;;;;;;;5.71;100.00;102197.22;5042483;28;20162;-85
2022/09/22 04:57:59;;;;;;;26.10;23.60;;;;;;;5.76;100.00;102202.16;5072562;28;20048;-85
2022/09/22 05:00:27;;;;;;;26.43;23.93;;;;;;;5.87;100.00;102199.28;5040114;28;20044;-85
2022/09/22 05:02:53;;;;;;;26.40;23.80;;;;;;;5.78;100.00;102197.50;5042179;28;20610;-85
2022/09/22 05:05:19;;;;;;;26.87;24.27;;;;;;;5.71;100.00;102202.63;5040928;28;20040;-85
2022/09/22 05:07:53;;;;;;;27.20;24.60;;;;;;;5.71;100.00;102207.13;5041034;28;20774;-85
2022/09/22 05:10:20;;;;;;;25.70;23.27;;;;;;;5.65;100.00;102207.72;5039668;28;20099;-85
2022/09/22 05:12:46;;;;;;;27.47;24.77;;;;;;;5.65;100.00;102202.34;5040457;28;20063;-86
2022/09/22 05:15:13;;;;;;;28.07;25.47;;;;;;;5.73;100.00;102197.91;5039201;28;20128;-86
2022/09/22 05:17:50;;;;;;;29.30;26.47;;;;;;;5.77;100.00;102201.19;5072167;28;20075;-86
2022/09/22 05:20:17;;;;;;;27.13;24.50;;;;;;;5.74;100.00;102212.22;5041750;28;20422;-86
2022/09/22 05:22:42;;;;;;;26.93;24.33;;;;;;;5.71;100.00;102205.31;5041352;28;20400;-85
2022/09/22 05:25:11;;;;;;;28.83;26.13;;;;;;;5.82;100.00;102206.97;5041799;28;20043;-85
2022/09/22 05:27:42;;;;;;;29.33;26.43;;;;;;;5.87;100.00;102207.34;5039818;28;20129;-86
2022/09/22 05:30:08;;;;;;;30.00;27.10;;;;;;;5.88;100.00;102213.59;5040878;28;20032;-85
2022/09/22 05:32:33;;;;;;;29.10;26.40;;;;;;;5.80;100.00;102203.56;5039153;28;20420;-85
2022/09/22 05:34:58;;;;;;;27.00;24.30;;;;;;;5.73;100.00;102210.53;5042012;28;20619;-86
2022/09/22 05:37:24;;;;;;;28.70;25.90;;;;;;;5.84;100.00;102204.13;5040416;28;21077;-85
2022/09/22 05:39:49;;;;;;;27.73;25.13;;;;;;;5.86;100.00;102208.38;5039794;28;20484;-85
2022/09/22 05:42:14;;;;;;;28.23;25.53;;;;;;;5.85;100.00;102212.03;5026258;28;20163;-85
2022/09/22 05:44:40;;;;;;;27.83;25.13;;;;;;;5.76;100.00;102218.28;5040178;28;20056;-88
2022/09/22 05:47:05;;;;;;;27.77;25.13;;;;;;;5.81;100.00;102209.81;5040042;28;20098;-85
2022/09/22 05:49:30;;;;;;;27.43;24.63;;;;;;;5.78;100.00;102213.63;5073477;28;20041;-85
2022/09/22 05:51:57;;;;;;;29.83;26.80;;;;;;;5.88;100.00;102218.97;5039808;28;20057;-85
2022/09/22 05:54:23;;;;;;;30.17;27.20;;;;;;;5.95;100.00;102221.94;5040891;28;20111;-86
2022/09/22 05:56:49;;;;;;;31.43;28.33;;;;;;;6.03;100.00;102219.38;5040271;28;20040;-87
2022/09/22 05:59:14;;;;;;;32.67;29.37;;;;;;;6.10;100.00;102222.31;5041219;28;20560;-86
2022/09/22 06:01:40;;;;;;;32.13;28.97;;;;;;;6.15;100.00;102226.25;5040147;28;20059;-86
2022/09/22 06:04:05;;;;;;;31.27;28.20;;;;;;;6.18;100.00;102220.56;5040911;28;20477;-85
2022/09/22 06:06:30;;;;;;;31.50;28.50;;;;;;;6.27;100.00;102226.06;5040621;28;20068;-87
2022/09/22 06:08:56;;;;;;;31.33;28.33;;;;;;;6.32;100.00;102226.47;5040756;28;20037;-87
2022/09/22 06:11:22;;;;;;;32.50;29.53;;;;;;;6.39;100.00;102235.63;5039132;28;20040;-87
2022/09/22 06:13:50;;;;;;;32.27;29.17;;;;;;;6.42;100.00;102228.09;5040629;28;20064;-87
2022/09/22 06:16:19;;;;;;;31.07;27.80;;;;;;;6.49;100.00;102225.66;5025611;28;20044;-87
2022/09/22 06:18:46;;;;;;;30.23;27.43;;;;;;;6.51;100.00;102215.56;5055388;28;20036;-86
2022/09/22 06:21:15;;;;;;;29.77;26.83;;;;;;;6.56;100.00;102221.34;5040893;28;20071;-88
2022/09/22 06:23:41;;;;;;;31.40;28.20;;;;;;;6.68;100.00;102226.53;5055155;28;20059;-86
2022/09/22 06:26:06;;;;;;;30.40;27.37;;;;;;;6.76;100.00;102229.31;5037932;28;20132;-87
2022/09/22 06:28:32;;;;;;;30.43;27.43;;;;;;;6.78;100.00;102227.31;5040207;28;20045;-87
2022/09/22 06:30:59;;;;;;;29.13;26.33;;;;;;;6.85;100.00;102223.00;5040161;28;20443;-87
2022/09/22 06:33:25;;;;;;;28.80;25.83;;;;;;;6.92;100.00;102224.09;5038569;28;20071;-87
2022/09/22 06:35:50;;;;;;;29.27;26.10;;;;;;;7.00;100.00;102215.22;5040421;28;20064;-87
2022/09/22 06:38:16;;;;;;;29.37;26.33;;;;;;;7.10;100.00;102224.09;5024944;28;20629;-87
2022/09/22 06:40:42;;;;;;;27.57;24.77;;;;;;;7.17;100.00;102218.91;5040142;28;20040;-86
2022/09/22 06:43:14;;;;;;;28.03;25.07;;;;;;;7.22;100.00;102213.91;5039584;28;20076;-86
2022/09/22 06:45:41;;;;;;;29.37;26.37;;;;;;;7.33;100.00;102215.53;5040408;28;20431;-86
2022/09/22 06:48:09;;;;;;;27.27;24.47;;;;;;;7.40;100.00;102216.56;5041277;28;20124;-86
2022/09/22 06:50:34;;;;;;;26.33;23.63;;;;;;;7.49;100.00;102213.94;5040657;28;20708;-87
2022/09/22 06:53:01;;;;;;;29.50;24.17;;;;;;;7.57;100.00;102220.22;5039608;28;20072;-90
2022/09/22 06:55:28;;;;;;;25.07;22.53;;;;;;;7.69;100.00;102218.13;5038035;28;20028;-85
2022/09/22 06:57:59;;;;;;;26.93;24.20;;;;;;;7.81;100.00;102218.69;5039637;28;20517;-86
2022/09/22 07:00:31;;;;;;;26.30;23.50;;;;;;;7.97;100.00;102211.69;5059530;28;20373;-86
2022/09/22 07:03:04;;;;;;;25.80;23.00;;;;;;;8.11;100.00;102217.31;5043528;28;20388;-85
2022/09/22 07:05:30;;;;;;;24.80;22.17;;;;;;;8.20;100.00;102210.13;5043160;28;20029;-85
2022/09/22 07:07:55;;;;;;;24.70;21.90;;;;;;;8.41;100.00;102214.25;5042325;28;20029;-86
2022/09/22 07:10:20;;;;;;;24.87;22.27;;;;;;;8.51;100.00;102212.25;5043080;28;20094;-85
2022/09/22 07:12:47;;;;;;;23.87;21.37;;;;;;;8.69;100.00;102211.31;5044058;28;20871;-85
2022/09/22 07:15:13;;;;;;;24.17;21.13;;;;;;;8.85;100.00;102215.91;5074403;28;20725;-86
2022/09/22 07:17:38;;;;;;;22.87;20.37;;;;;;;9.00;98.53;102211.50;5076465;28;20033;-84
2022/09/22 07:20:04;;;;;;;23.33;20.63;;;;;;;9.13;98.69;102211.03;5043151;28;20457;-87
2022/09/22 07:22:30;;;;;;;21.97;18.93;;;;;;;9.25;96.17;102211.53;5037087;28;20557;-85
2022/09/22 07:24:55;;;;;;;22.30;18.83;;;;;;;9.36;96.09;102208.47;5037609;28;20037;-85
2022/09/22 07:27:24;;;;;;;22.27;18.07;;;;;;;9.46;94.25;102214.56;5038191;28;20468;-85
2022/09/22 07:29:53;;;;;;;20.67;17.20;;;;;;;9.61;93.98;102206.59;5024249;28;20032;-84
2022/09/22 07:32:20;;;;;;;23.37;17.83;;;;;;;9.76;93.20;102214.00;5039346;28;20559;-84
2022/09/22 07:34:47;;;;;;;22.07;18.40;;;;;;;9.94;93.80;102208.34;5038340;28;20562;-85
2022/09/22 07:37:14;;;;;;;22.70;18.57;;;;;;;10.14;93.48;102211.50;5069507;28;20060;-84
2022/09/22 07:39:39;;;;;;;21.27;18.60;;;;;;;10.32;94.24;102208.53;5039298;28;20072;-84
2022/09/22 07:42:05;;;;;;;21.37;17.87;;;;;;;10.53;93.47;102207.13;5035212;28;20504;-84
2022/09/22 07:47:14;;;;;;;20.40;15.87;;;;;;;10.90;90.65;102209.09;5033052;28;20055;-84
2022/09/22 07:49:39;;;;;;;19.57;14.73;;;;;;;10.94;86.67;102207.69;5066040;28;20041;-85
2022/09/22 07:52:04;;;;;;;18.03;15.17;;;;;;;11.12;87.41;102211.97;5032632;28;20102;-84
2022/09/22 07:54:32;;;;;;;19.70;14.77;;;;;;;11.25;86.33;102219.50;5066208;28;20040;-83
2022/09/22 07:56:58;;;;;;;19.40;14.37;;;;;;;11.47;85.82;102215.91;5033173;28;20496;-83
2022/09/22 07:59:24;;;;;;;19.87;13.23;;;;;;;11.57;82.85;102212.94;5065756;28;20044;-84
2022/09/22 08:01:51;;;;;;;18.70;13.47;;;;;;;11.78;81.67;102219.50;5033332;28;20681;-84
2022/09/22 08:04:20;;;;;;;17.90;12.93;;;;;;;11.88;80.08;102214.63;5065261;28;20431;-84
2022/09/22 08:06:47;;;;;;;18.13;12.27;;;;;;;12.17;81.04;102212.97;5033737;28;20029;-84
2022/09/22 08:09:13;;;;;;;16.33;12.83;;;;;;;12.49;82.38;102210.84;5032945;28;20064;-85
2022/09/22 08:11:39;;;;;;;15.13;11.43;;;;;;;12.82;81.16;102213.09;5033203;28;20264;-84
2022/09/22 08:14:07;;;;;;;15.13;10.87;;;;;;;13.05;76.69;102209.34;5033837;28;20119;-84
2022/09/22 08:16:35;;;;;;;13.43;11.17;;;;;;;13.32;75.29;102197.66;5035116;28;20036;-84
2022/09/22 08:19:09;;;;;;;16.03;10.27;;;;;;;13.45;72.41;102205.13;5036745;28;20090;-84
2022/09/22 08:21:35;;;;;;;16.17;10.55;;;;;;;13.69;70.88;102205.69;5037140;28;21469;-83
2022/09/22 08:24:02;;;;;;;14.80;9.90;;;;;;;13.87;72.56;102204.34;5036337;28;20462;-85
2022/09/22 08:26:27;;;;;;;14.10;9.93;;;;;;;14.15;69.63;102205.13;5034316;28;20059;-84
2022/09/22 08:28:55;;;;;;;13.47;9.60;;;;;;;14.45;69.82;102193.09;5066289;28;20045;-84
2022/09/22 08:31:22;;;;;;;13.00;9.63;;;;;;;14.93;71.38;102197.63;5033850;28;20466;-83
2022/09/22 08:33:51;;;;;;;13.53;8.83;;;;;;;15.20;66.80;102193.03;5033491;28;20029;-84
2022/09/22 08:36:16;;;;;;;14.80;8.70;;;;;;;15.22;63.77;102193.66;5033908;28;20044;-84
2022/09/22 08:38:44;;;;;;;12.27;8.97;;;;;;;15.36;64.10;102192.59;5032458;28;20137;-83
2022/09/22 08:41:11;;;;;;;10.57;8.37;;;;;;;15.78;64.67;102192.34;5031909;28;20432;-84
2022/09/22 08:43:47;;;;;;;12.73;8.50;;;;;;;15.98;63.81;102197.78;5032821;28;20048;-85
2022/09/22 08:46:13;;;;;;;12.50;9.03;;;;;;;16.16;63.98;102199.81;5033722;28;20210;-83
2022/09/22 08:51:50;;;;;;;16.53;8.97;;;;;;;16.78;64.97;102198.44;5033320;28;20064;-84
2022/09/22 08:54:16;;;;;;;15.30;9.80;;;;;;;16.76;60.45;102195.13;5032739;28;20075;-85
2022/09/22 08:56:56;;;;;;;14.50;9.27;;;;;;;16.98;60.83;102201.91;5048451;28;20127;-84
2022/09/22 08:59:26;;;;;;;14.27;9.17;;;;;;;17.23;61.45;102198.38;5032842;28;20037;-83
2022/09/22 09:02:18;;;;;;;15.27;9.07;;;;;;;17.33;60.45;102203.34;5033196;28;20032;-83
2022/09/22 09:05:02;;;;;;;15.63;9.23;;;;;;;17.46;60.29;102202.38;5032317;28;20056;-85
2022/09/22 09:07:49;;;;;;;15.38;9.10;;;;;;;17.53;60.98;102204.00;5032939;28;20025;-83
2022/09/22 09:10:42;;;;;;;14.63;9.27;;;;;;;17.31;59.23;102200.84;5032866;28;20358;-85
2022/09/22 09:13:37;;;;;;;13.45;9.32;;;;;;;17.35;59.74;102202.06;5032046;28;20503;-85
2022/09/22 09:16:26;;;;;;;10.03;8.63;;;;;;;17.49;58.48;102210.19;5005055;28;20071;-84
2022/09/22 09:19:01;;;;;;;13.13;9.00;;;;;;;17.59;58.47;102207.75;5032728;28;20049;-83
2022/09/22 09:21:32;;;;;;;11.70;8.93;;;;;;;17.68;57.56;102211.88;5031829;28;20025;-84
2022/09/22 09:24:01;;;;;;;12.93;9.23;;;;;;;17.82;58.01;102201.59;5032269;28;20037;-86
2022/09/22 09:26:28;;;;;;;10.10;8.30;;;;;;;17.75;57.21;102200.84;5033210;28;20384;-83
2022/09/22 09:29:00;;;;;;;11.05;8.80;;;;;;;17.97;57.87;102206.75;5030637;28;20885;-85
2022/09/22 09:31:44;;;;;;;12.82;8.57;;;;;;;17.94;56.30;102203.59;5032181;28;20041;-83
2022/09/22 09:34:19;;;;;;;11.23;8.52;;;;;;;18.20;58.33;102202.47;5032574;28;20036;-84
2022/09/22 09:36:51;;;;;;;;;;;;;;;18.84;58.08;102196.53;5034080;28;20412;-85
2022/09/22 09:39:26;;;;;;;13.30;8.68;;;;;;;18.36;55.31;102199.09;5032365;28;19920;-85
2022/09/22 09:41:52;;;;;;;9.90;7.93;;;;;;;18.47;55.53;102202.97;5031892;28;20205;-85
2022/09/22 09:44:27;;;;;;;12.02;8.10;;;;;;;18.44;56.01;102202.56;5021870;28;20513;-85
2022/09/22 09:47:01;;;;;;;12.10;8.38;;;;;;;18.32;54.96;102200.63;5033079;28;20040;-84
2022/09/22 09:49:27;;;;;;;12.57;8.63;;;;;;;18.21;54.80;102201.41;5032329;28;20510;-83
2022/09/22 09:51:56;;;;;;;14.45;8.60;;;;;;;18.54;55.71;102195.47;5047620;28;20095;-85
2022/09/22 09:54:22;;;;;;;13.45;7.45;;;;;;;18.53;52.91;102195.72;5065870;28;20457;-86
2022/09/22 09:57:11;;;;;;;9.45;7.95;;;;;;;19.08;57.32;102202.09;5035690;28;20037;-85
2022/09/22 10:02:47;;;;;;;11.90;8.30;;;;;;;19.05;53.92;102196.03;5035723;28;20052;-83
2022/09/22 10:05:15;;;;;;;10.20;8.30;;;;;;;18.83;55.84;102192.94;5005267;28;20205;-86
2022/09/22 10:07:43;;;;;;;9.55;7.25;;;;;;;18.96;51.54;102191.09;5035093;28;20037;-87
2022/09/22 10:10:28;;;;;;;9.98;6.30;;;;;;;18.95;50.60;102179.28;5035025;28;20037;-82
2022/09/22 10:12:59;;;;;;;8.98;7.18;;;;;;;18.78;49.57;102186.47;5034936;28;20091;-87
2022/09/22 10:15:25;;;;;;;8.23;6.40;;;;;;;18.87;49.12;102180.41;5034159;28;20025;-85
2022/09/22 10:17:51;;;;;;;8.02;6.50;;;;;;;19.05;50.36;102184.19;5032449;28;20037;-85
2022/09/22 10:20:25;;;;;;;8.23;6.10;;;;;;;19.00;48.46;102181.31;5034573;28;20037;-85
2022/09/22 10:22:51;;;;;;;8.82;6.38;;;;;;;18.93;48.00;102173.19;5035276;28;20052;-86
2022/09/22 10:25:21;;;;;;;8.23;5.60;;;;;;;18.83;47.68;102172.88;5034563;28;20035;-85
2022/09/22 10:28:25;;;;;;;6.50;4.90;;;;;;;19.35;48.82;102181.38;5035729;28;20124;-83
2022/09/22 10:30:59;;;;;;;7.20;5.85;;;;;;;19.06;48.39;102166.63;4954049;28;20046;-81
2022/09/22 10:33:24;;;;;;;6.68;5.97;;;;;;;19.13;48.69;102174.75;4955440;28;20027;-83
2022/09/22 10:36:02;;;;;;;5.18;4.68;;;;;;;19.45;46.29;102171.66;4999693;28;20409;-85
2022/09/22 10:38:32;;;;;;;6.78;4.25;;;;;;;19.46;44.31;102159.59;5038791;28;20036;-86
2022/09/22 10:41:20;;;;;;;6.88;4.65;;;;;;;19.79;47.96;102163.66;5038684;28;20135;-83
2022/09/22 10:44:03;;;;;;;6.07;4.70;;;;;;;19.87;45.69;102155.88;5037230;28;20183;-85
2022/09/22 10:46:34;;;;;;;6.97;5.25;;;;;;;19.91;45.09;102156.25;5038459;28;20041;-84
2022/09/22 10:49:30;;;;;;;6.18;4.82;;;;;;;20.07;43.62;102149.97;5038969;28;20035;-84
2022/09/22 10:52:10;;;;;;;7.63;5.00;;;;;;;20.52;47.31;102151.09;5053087;28;20652;-83
2022/09/22 10:54:44;;;;;;;8.13;5.68;;;;;;;20.08;44.57;102150.78;5037041;28;20054;-85
2022/09/22 10:57:34;;;;;;;6.72;5.25;;;;;;;20.31;44.23;102158.13;5038136;28;20040;-83
2022/09/22 11:00:08;;;;;;;7.85;4.50;;;;;;;20.32;43.97;102140.53;5038253;28;20037;-84
2022/09/22 11:03:15;;;;;;;6.88;3.70;;;;;;;20.32;44.16;102150.72;5038840;28;20572;-83
2022/09/22 11:12:17;;;;;;;5.65;4.25;;;;;;;20.38;44.16;102138.72;5038147;28;20100;-83
2022/09/22 11:15:05;;;;;;;4.85;3.55;;;;;;;20.36;44.22;102138.97;5038221;28;20033;-83
2022/09/22 11:17:42;;;;;;;5.93;4.22;;;;;;;20.11;42.95;102138.47;5038536;28;20408;-82
2022/09/22 11:20:26;;;;;;;5.75;3.83;;;;;;;20.01;42.52;102137.19;5038538;28;20411;-84
2022/09/22 11:23:30;;;;;;;2.95;2.55;;;;;;;19.93;41.81;102134.00;5038556;28;20156;-85
2022/09/22 11:26:14;;;;;;;5.03;3.53;;;;;;;19.74;42.66;102134.09;5070385;28;20021;-88
2022/09/22 11:29:06;;;;;;;4.05;3.22;;;;;;;19.67;44.82;102126.00;5037231;28;20427;-85
2022/09/22 11:32:09;;;;;;;4.82;3.22;;;;;;;19.49;43.15;102126.16;5036866;28;20032;-85
2022/09/22 11:34:44;;;;;;;4.47;2.97;;;;;;;19.48;44.05;102107.97;5037839;28;20106;-83
2022/09/22 11:37:49;;;;;;;3.92;3.28;;;;;;;19.35;41.95;102115.41;5037796;28;20124;-84
2022/09/22 11:40:42;;;;;;;3.50;2.95;;;;;;;19.40;44.41;102109.19;5037439;28;20029;-86
2022/09/22 11:43:44;;;;;;;6.28;2.47;;;;;;;18.94;41.83;102108.94;5037665;28;20048;-86
2022/09/22 11:46:36;;;;;;;2.85;2.38;;;;;;;18.47;40.94;102108.84;5037384;28;20041;-83
2022/09/22 11:49:18;;;;;;;4.55;2.92;;;;;;;18.56;42.22;102099.16;5037247;28;20037;-84